createdAt,value
2023-04-15T00:00:01.538Z,23.68
2023-04-15T00:01:01.501Z,23.68
2023-04-15T00:02:01.636Z,23.68
2023-04-15T00:03:01.653Z,23.68
2023-04-15T00:04:01.589Z,23.68
2023-04-15T00:05:01.469Z,23.68
2023-04-15T00:06:01.512Z,23.68
2023-04-15T00:07:01.580Z,23.68
2023-04-15T00:08:01.567Z,23.67
2023-04-15T00:09:01.816Z,23.67
2023-04-15T00:10:01.697Z,23.67
2023-04-15T00:11:01.669Z,23.67
2023-04-15T00:12:01.698Z,23.68
2023-04-15T00:13:01.721Z,23.68
2023-04-15T00:14:01.771Z,23.67
2023-04-15T00:15:01.863Z,23.67
2023-04-15T00:16:01.808Z,23.67
2023-04-15T00:17:01.912Z,23.68
2023-04-15T00:18:01.908Z,23.68
2023-04-15T00:19:02.124Z,23.67
2023-04-15T00:20:01.948Z,23.67
2023-04-15T00:21:01.994Z,23.67
2023-04-15T00:22:02.032Z,23.67
2023-04-15T00:23:02.064Z,23.67
2023-04-15T00:24:02.127Z,23.67
2023-04-15T00:25:02.135Z,23.67
2023-04-15T00:26:02.248Z,23.66
2023-04-15T00:27:02.191Z,23.66
2023-04-15T00:28:02.212Z,23.66
2023-04-15T00:29:02.416Z,23.66
2023-04-15T00:30:02.279Z,23.66
2023-04-15T00:31:02.459Z,23.66
2023-04-15T00:32:02.360Z,23.65
2023-04-15T00:33:02.419Z,23.66
2023-04-15T00:34:02.417Z,23.66
2023-04-15T00:35:02.451Z,23.66
2023-04-15T00:36:02.489Z,23.65
2023-04-15T00:37:02.518Z,23.65
2023-04-15T00:38:02.549Z,23.65
2023-04-15T00:39:02.731Z,23.65
2023-04-15T00:40:02.625Z,23.65
2023-04-15T00:41:02.673Z,23.65
2023-04-15T00:42:02.710Z,23.65
2023-04-15T00:43:02.752Z,23.65
2023-04-15T00:44:02.786Z,23.66
2023-04-15T00:45:02.799Z,23.65
2023-04-15T00:46:02.877Z,23.65
2023-04-15T00:47:02.876Z,23.65
2023-04-15T00:48:02.915Z,23.65
2023-04-15T00:49:02.971Z,23.66
2023-04-15T00:50:02.985Z,23.65
2023-04-15T00:51:03.011Z,23.65
2023-04-15T00:52:03.034Z,23.65
2023-04-15T00:53:03.083Z,23.65
2023-04-15T00:54:03.212Z,23.64
2023-04-15T00:55:03.166Z,23.64
2023-04-15T00:56:03.191Z,23.64
2023-04-15T00:57:03.221Z,23.65
2023-04-15T00:58:03.256Z,23.64
2023-04-15T00:59:03.284Z,23.64
2023-04-15T01:00:03.328Z,23.64
2023-04-15T01:01:03.354Z,23.64
2023-04-15T01:02:03.454Z,23.64
2023-04-15T01:03:03.498Z,23.64
2023-04-15T01:04:03.610Z,23.64
2023-04-15T01:05:03.496Z,23.64
2023-04-15T01:06:04.152Z,23.64
2023-04-15T01:07:03.561Z,23.65
2023-04-15T01:08:03.594Z,23.64
2023-04-15T01:09:03.838Z,23.64
2023-04-15T01:10:03.649Z,23.64
2023-04-15T01:11:03.748Z,23.64
2023-04-15T01:12:03.712Z,23.64
2023-04-15T01:13:03.790Z,23.64
2023-04-15T01:14:03.783Z,23.64
2023-04-15T01:15:03.828Z,23.64
2023-04-15T01:16:03.987Z,23.64
2023-04-15T01:17:03.890Z,23.63
2023-04-15T01:18:03.964Z,23.63
2023-04-15T01:19:03.966Z,23.64
2023-04-15T01:20:04.000Z,23.63
2023-04-15T01:21:04.027Z,23.63
2023-04-15T01:22:04.168Z,23.64
2023-04-15T01:23:04.103Z,23.64
2023-04-15T01:24:04.143Z,23.64
2023-04-15T01:25:04.160Z,23.63
2023-04-15T01:26:04.185Z,23.63
2023-04-15T01:27:04.240Z,23.63
2023-04-15T01:28:04.266Z,23.62
2023-04-15T01:29:04.298Z,23.63
2023-04-15T01:30:04.352Z,23.62
2023-04-15T01:31:04.402Z,23.62
2023-04-15T01:32:04.425Z,23.62
2023-04-15T01:33:04.534Z,23.62
2023-04-15T01:34:04.498Z,23.62
2023-04-15T01:35:04.519Z,23.62
2023-04-15T01:36:04.555Z,23.62
2023-04-15T01:37:04.600Z,23.62
2023-04-15T01:38:04.720Z,23.62
2023-04-15T01:39:04.668Z,23.62
2023-04-15T01:40:04.701Z,23.62
2023-04-15T01:41:04.725Z,23.62
2023-04-15T01:42:04.770Z,23.62
2023-04-15T01:43:04.800Z,23.62
2023-04-15T01:44:04.844Z,23.62
2023-04-15T01:45:04.891Z,23.62
2023-04-15T01:46:04.930Z,23.62
2023-04-15T01:47:04.994Z,23.61
2023-04-15T01:48:04.991Z,23.61
2023-04-15T01:49:05.033Z,23.61
2023-04-15T01:50:05.082Z,23.61
2023-04-15T01:51:05.103Z,23.61
2023-04-15T01:52:05.138Z,23.61
2023-04-15T01:53:05.196Z,23.61
2023-04-15T01:54:05.208Z,23.61
2023-04-15T01:55:05.259Z,23.61
2023-04-15T01:56:05.302Z,23.61
2023-04-15T01:57:05.324Z,23.61
2023-04-15T01:58:05.364Z,23.61
2023-04-15T01:59:05.429Z,23.61
2023-04-15T02:00:05.552Z,23.61
2023-04-15T02:01:05.544Z,23.61
2023-04-15T02:02:05.592Z,23.61
2023-04-15T02:03:05.633Z,23.60
2023-04-15T02:04:05.664Z,23.60
2023-04-15T02:05:05.679Z,23.61
2023-04-15T02:06:05.706Z,23.60
2023-04-15T02:07:05.745Z,23.60
2023-04-15T02:08:05.788Z,23.60
2023-04-15T02:09:05.828Z,23.60
2023-04-15T02:10:05.880Z,23.60
2023-04-15T02:11:05.915Z,23.60
2023-04-15T02:12:05.958Z,23.60
2023-04-15T02:13:05.961Z,23.60
2023-04-15T02:14:06.018Z,23.59
2023-04-15T02:15:06.045Z,23.60
2023-04-15T02:16:06.151Z,23.59
2023-04-15T02:17:06.130Z,23.60
2023-04-15T02:18:06.173Z,23.59
2023-04-15T02:19:06.229Z,23.60
2023-04-15T02:20:06.247Z,23.59
2023-04-15T02:21:06.297Z,23.60
2023-04-15T02:22:06.327Z,23.59
2023-04-15T02:23:06.460Z,23.59
2023-04-15T02:24:06.456Z,23.60
2023-04-15T02:25:06.469Z,23.60
2023-04-15T02:26:06.523Z,23.59
2023-04-15T02:27:06.547Z,23.59
2023-04-15T02:28:06.640Z,23.59
2023-04-15T02:29:06.632Z,23.60
2023-04-15T02:30:06.695Z,23.59
2023-04-15T02:31:06.711Z,23.58
2023-04-15T02:32:06.889Z,23.58
2023-04-15T02:33:06.794Z,23.59
2023-04-15T02:34:06.861Z,23.58
2023-04-15T02:35:06.903Z,23.58
2023-04-15T02:36:06.928Z,23.58
2023-04-15T02:37:06.978Z,23.58
2023-04-15T02:38:07.020Z,23.58
2023-04-15T02:39:07.073Z,23.58
2023-04-15T02:40:07.123Z,23.59
2023-04-15T02:41:07.143Z,23.58
2023-04-15T02:42:07.193Z,23.58
2023-04-15T02:43:07.243Z,23.58
2023-04-15T02:44:07.270Z,23.58
2023-04-15T02:45:07.404Z,23.58
2023-04-15T02:46:07.411Z,23.59
2023-04-15T02:47:07.424Z,23.58
2023-04-15T02:48:07.458Z,23.57
2023-04-15T02:49:07.483Z,23.58
2023-04-15T02:50:07.524Z,23.57
2023-04-15T02:51:07.564Z,23.57
2023-04-15T02:52:07.620Z,23.56
2023-04-15T02:53:07.688Z,23.57
2023-04-15T02:54:07.691Z,23.57
2023-04-15T02:55:07.759Z,23.57
2023-04-15T02:56:07.771Z,23.57
2023-04-15T02:57:07.817Z,23.56
2023-04-15T02:58:07.852Z,23.57
2023-04-15T02:59:07.912Z,23.57
2023-04-15T03:00:07.946Z,23.56
2023-04-15T03:01:08.017Z,23.57
2023-04-15T03:02:08.070Z,23.56
2023-04-15T03:03:08.235Z,23.56
2023-04-15T03:04:08.211Z,23.57
2023-04-15T03:05:08.177Z,23.56
2023-04-15T03:06:08.240Z,23.56
2023-04-15T03:07:08.252Z,23.57
2023-04-15T03:08:08.411Z,23.56
2023-04-15T03:09:08.356Z,23.56
2023-04-15T03:10:08.404Z,23.57
2023-04-15T03:11:08.482Z,23.56
2023-04-15T03:12:08.474Z,23.56
2023-04-15T03:13:08.520Z,23.56
2023-04-15T03:14:08.586Z,23.56
2023-04-15T03:15:08.625Z,23.56
2023-04-15T03:16:08.674Z,23.55
2023-04-15T03:17:08.709Z,23.56
2023-04-15T03:18:08.779Z,23.56
2023-04-15T03:19:08.776Z,23.55
2023-04-15T03:20:08.864Z,23.56
2023-04-15T03:21:08.884Z,23.56
2023-04-15T03:22:08.914Z,23.56
2023-04-15T03:23:08.995Z,23.55
2023-04-15T03:24:09.005Z,23.55
2023-04-15T03:25:09.048Z,23.55
2023-04-15T03:26:09.087Z,23.55
2023-04-15T03:27:09.133Z,23.55
2023-04-15T03:28:09.168Z,23.56
2023-04-15T03:29:09.204Z,23.56
2023-04-15T03:30:09.358Z,23.55
2023-04-15T03:31:09.342Z,23.55
2023-04-15T03:32:09.347Z,23.54
2023-04-15T03:33:09.404Z,23.53
2023-04-15T03:34:09.421Z,23.54
2023-04-15T03:35:09.496Z,23.53
2023-04-15T03:36:09.535Z,23.55
2023-04-15T03:37:09.556Z,23.54
2023-04-15T03:38:09.602Z,23.53
2023-04-15T03:39:09.686Z,23.54
2023-04-15T03:40:09.718Z,23.54
2023-04-15T03:41:09.747Z,23.54
2023-04-15T03:42:09.789Z,23.54
2023-04-15T03:43:09.839Z,23.54
2023-04-15T03:44:09.865Z,23.54
2023-04-15T03:45:09.950Z,23.54
2023-04-15T03:46:09.979Z,23.53
2023-04-15T03:47:10.019Z,23.53
2023-04-15T03:49:10.067Z,23.53
2023-04-15T03:50:10.064Z,23.53
2023-04-15T03:51:10.054Z,23.53
2023-04-15T03:52:10.039Z,23.53
2023-04-15T03:53:10.024Z,23.52
2023-04-15T03:54:10.028Z,23.53
2023-04-15T03:55:10.015Z,23.53
2023-04-15T03:56:10.001Z,23.52
2023-04-15T03:57:10.036Z,23.53
2023-04-15T03:58:10.036Z,23.53
2023-04-15T03:59:09.996Z,23.53
2023-04-15T04:00:10.058Z,23.52
2023-04-15T04:01:10.013Z,23.53
2023-04-15T04:02:10.044Z,23.52
2023-04-15T04:03:10.258Z,23.52
2023-04-15T04:04:10.034Z,23.52
2023-04-15T04:05:10.003Z,23.53
2023-04-15T04:06:09.965Z,23.52
2023-04-15T04:07:10.031Z,23.52
2023-04-15T04:08:09.953Z,23.52
2023-04-15T04:09:09.988Z,23.53
2023-04-15T04:10:09.932Z,23.52
2023-04-15T04:11:09.921Z,23.52
2023-04-15T04:12:09.925Z,23.52
2023-04-15T04:13:09.916Z,23.52
2023-04-15T04:14:09.911Z,23.52
2023-04-15T04:15:09.907Z,23.52
2023-04-15T04:16:09.962Z,23.52
2023-04-15T04:17:09.920Z,23.52
2023-04-15T04:18:09.879Z,23.52
2023-04-15T04:19:09.861Z,23.52
2023-04-15T04:20:09.873Z,23.52
2023-04-15T04:21:09.848Z,23.52
2023-04-15T04:22:09.867Z,23.52
2023-04-15T04:23:09.844Z,23.52
2023-04-15T04:24:09.832Z,23.52
2023-04-15T04:25:09.840Z,23.52
2023-04-15T04:26:09.834Z,23.52
2023-04-15T04:27:09.829Z,23.51
2023-04-15T04:28:09.806Z,23.51
2023-04-15T04:29:09.797Z,23.51
2023-04-15T04:30:09.818Z,23.51
2023-04-15T04:31:09.792Z,23.51
2023-04-15T04:32:09.888Z,23.50
2023-04-15T04:33:09.795Z,23.51
2023-04-15T04:34:09.833Z,23.51
2023-04-15T04:35:09.883Z,23.52
2023-04-15T04:36:09.939Z,23.51
2023-04-15T04:37:09.970Z,23.52
2023-04-15T04:38:10.024Z,23.51
2023-04-15T04:39:10.098Z,23.51
2023-04-15T04:40:10.130Z,23.51
2023-04-15T04:41:10.192Z,23.51
2023-04-15T04:42:10.224Z,23.51
2023-04-15T04:43:10.295Z,23.51
2023-04-15T04:44:10.336Z,23.51
2023-04-15T04:45:10.383Z,23.50
2023-04-15T04:46:10.533Z,23.51
2023-04-15T04:47:10.487Z,23.51
2023-04-15T04:48:10.556Z,23.51
2023-04-15T04:49:10.574Z,23.51
2023-04-15T04:50:10.653Z,23.51
2023-04-15T04:51:10.677Z,23.50
2023-04-15T04:52:10.737Z,23.51
2023-04-15T04:53:10.770Z,23.50
2023-04-15T04:54:10.839Z,23.50
2023-04-15T04:55:10.877Z,23.50
2023-04-15T04:56:10.944Z,23.50
2023-04-15T04:57:10.988Z,23.50
2023-04-15T04:58:11.028Z,23.50
2023-04-15T04:59:11.083Z,23.51
2023-04-15T05:00:11.129Z,23.51
2023-04-15T05:01:11.245Z,23.50
2023-04-15T05:02:11.347Z,23.50
2023-04-15T05:03:11.396Z,23.50
2023-04-15T05:04:11.519Z,23.50
2023-04-15T05:05:11.393Z,23.50
2023-04-15T05:06:11.449Z,23.50
2023-04-15T05:07:11.488Z,23.51
2023-04-15T05:08:11.523Z,23.50
2023-04-15T05:09:11.568Z,23.50
2023-04-15T05:10:11.640Z,23.50
2023-04-15T05:11:11.685Z,23.50
2023-04-15T05:12:11.718Z,23.50
2023-04-15T05:13:11.781Z,23.49
2023-04-15T05:14:11.838Z,23.50
2023-04-15T05:15:11.870Z,23.50
2023-04-15T05:16:11.942Z,23.50
2023-04-15T05:17:11.965Z,23.50
2023-04-15T05:18:12.021Z,23.50
2023-04-15T05:19:12.064Z,23.51
2023-04-15T05:20:12.121Z,23.50
2023-04-15T05:21:12.170Z,23.50
2023-04-15T05:22:12.219Z,23.51
2023-04-15T05:23:12.276Z,23.51
2023-04-15T05:24:12.318Z,23.50
2023-04-15T05:25:12.366Z,23.50
2023-04-15T05:26:12.400Z,23.50
2023-04-15T05:27:12.452Z,23.50
2023-04-15T05:28:12.507Z,23.50
2023-04-15T05:29:12.561Z,23.50
2023-04-15T05:30:13.727Z,23.51
2023-04-15T05:31:12.667Z,23.50
2023-04-15T05:32:12.688Z,23.51
2023-04-15T05:33:12.750Z,23.51
2023-04-15T05:34:12.808Z,23.51
2023-04-15T05:35:12.832Z,23.52
2023-04-15T05:36:12.887Z,23.50
2023-04-15T05:37:12.937Z,23.51
2023-04-15T05:38:12.968Z,23.51
2023-04-15T05:39:13.026Z,23.51
2023-04-15T05:40:13.071Z,23.51
2023-04-15T05:41:13.111Z,23.51
2023-04-15T05:42:13.154Z,23.51
2023-04-15T05:43:13.200Z,23.51
2023-04-15T05:44:13.260Z,23.51
2023-04-15T05:45:13.310Z,23.51
2023-04-15T05:46:13.367Z,23.51
2023-04-15T05:47:13.398Z,23.51
2023-04-15T05:48:13.431Z,23.51
2023-04-15T05:49:13.485Z,23.51
2023-04-15T05:50:13.526Z,23.51
2023-04-15T05:51:13.578Z,23.51
2023-04-15T05:52:13.657Z,23.51
2023-04-15T05:53:13.686Z,23.51
2023-04-15T05:54:13.723Z,23.51
2023-04-15T05:55:13.788Z,23.50
2023-04-15T05:56:13.842Z,23.50
2023-04-15T05:57:13.878Z,23.51
2023-04-15T05:58:13.919Z,23.51
2023-04-15T05:59:13.972Z,23.52
2023-04-15T06:00:14.008Z,23.51
2023-04-15T06:01:14.059Z,23.51
2023-04-15T06:02:14.172Z,23.52
2023-04-15T06:03:14.245Z,23.51
2023-04-15T06:04:14.261Z,23.52
2023-04-15T06:05:14.251Z,23.51
2023-04-15T06:06:14.322Z,23.51
2023-04-15T06:07:14.349Z,23.51
2023-04-15T06:08:14.382Z,23.51
2023-04-15T06:09:14.428Z,23.52
2023-04-15T06:10:14.497Z,23.52
2023-04-15T06:11:14.534Z,23.51
2023-04-15T06:12:14.579Z,23.51
2023-04-15T06:13:14.634Z,23.52
2023-04-15T06:14:14.680Z,23.51
2023-04-15T06:15:14.727Z,23.52
2023-04-15T06:16:14.835Z,23.52
2023-04-15T06:17:14.812Z,23.52
2023-04-15T06:18:14.868Z,23.52
2023-04-15T06:19:14.966Z,23.53
2023-04-15T06:20:14.974Z,23.53
2023-04-15T06:21:15.007Z,23.53
2023-04-15T06:22:15.048Z,23.53
2023-04-15T06:23:15.110Z,23.53
2023-04-15T06:24:15.147Z,23.53
2023-04-15T06:25:15.214Z,23.53
2023-04-15T06:26:15.258Z,23.53
2023-04-15T06:27:15.312Z,23.53
2023-04-15T06:28:15.321Z,23.53
2023-04-15T06:29:15.385Z,23.53
2023-04-15T06:30:15.394Z,23.53
2023-04-15T06:31:15.469Z,23.53
2023-04-15T06:32:15.458Z,23.53
2023-04-15T06:33:15.496Z,23.53
2023-04-15T06:34:15.530Z,23.55
2023-04-15T06:35:15.562Z,23.54
2023-04-15T06:36:15.607Z,23.55
2023-04-15T06:37:15.627Z,23.53
2023-04-15T06:38:15.641Z,23.55
2023-04-15T06:39:15.680Z,23.55
2023-04-15T06:40:15.724Z,23.54
2023-04-15T06:41:15.760Z,23.54
2023-04-15T06:42:15.797Z,23.55
2023-04-15T06:43:15.858Z,23.56
2023-04-15T06:44:15.901Z,23.56
2023-04-15T06:45:15.961Z,23.55
2023-04-15T06:46:16.033Z,23.56
2023-04-15T06:47:16.078Z,23.57
2023-04-15T06:48:16.054Z,23.56
2023-04-15T06:49:16.110Z,23.56
2023-04-15T06:50:16.135Z,23.58
2023-04-15T06:51:16.185Z,23.57
2023-04-15T06:52:16.214Z,23.57
2023-04-15T06:53:16.252Z,23.57
2023-04-15T06:54:16.304Z,23.57
2023-04-15T06:55:16.355Z,23.58
2023-04-15T06:56:16.384Z,23.57
2023-04-15T06:57:16.452Z,23.58
2023-04-15T06:58:16.478Z,23.58
2023-04-15T06:59:16.519Z,23.58
2023-04-15T07:00:16.561Z,23.58
2023-04-15T07:01:16.677Z,23.59
2023-04-15T07:02:16.680Z,23.59
2023-04-15T07:03:16.759Z,23.59
2023-04-15T07:04:16.763Z,23.59
2023-04-15T07:05:16.795Z,23.59
2023-04-15T07:06:16.820Z,23.60
2023-04-15T07:07:16.851Z,23.60
2023-04-15T07:08:16.897Z,23.60
2023-04-15T07:09:16.969Z,23.61
2023-04-15T07:10:16.999Z,23.61
2023-04-15T07:11:17.013Z,23.60
2023-04-15T07:12:17.073Z,23.61
2023-04-15T07:13:17.113Z,23.61
2023-04-15T07:14:17.136Z,23.61
2023-04-15T07:15:17.178Z,23.62
2023-04-15T07:16:17.239Z,23.62
2023-04-15T07:17:17.276Z,23.62
2023-04-15T07:18:17.290Z,23.62
2023-04-15T07:19:17.336Z,23.63
2023-04-15T07:20:17.389Z,23.62
2023-04-15T07:21:17.415Z,23.63
2023-04-15T07:22:17.459Z,23.63
2023-04-15T07:23:17.517Z,23.63
2023-04-15T07:24:17.529Z,23.64
2023-04-15T07:25:17.589Z,23.64
2023-04-15T07:26:17.615Z,23.65
2023-04-15T07:27:17.665Z,23.65
2023-04-15T07:28:17.685Z,23.65
2023-04-15T07:29:17.744Z,23.66
2023-04-15T07:30:17.760Z,23.66
2023-04-15T07:31:17.858Z,23.66
2023-04-15T07:32:17.835Z,23.67
2023-04-15T07:33:17.928Z,23.67
2023-04-15T07:34:17.905Z,23.67
2023-04-15T07:35:17.939Z,23.67
2023-04-15T07:36:17.985Z,23.67
2023-04-15T07:37:18.016Z,23.68
2023-04-15T07:38:18.049Z,23.69
2023-04-15T07:39:18.098Z,23.68
2023-04-15T07:40:18.114Z,23.69
2023-04-15T07:41:18.137Z,23.70
2023-04-15T07:42:18.190Z,23.70
2023-04-15T07:43:18.208Z,23.69
2023-04-15T07:44:18.239Z,23.70
2023-04-15T07:45:18.286Z,23.70
2023-04-15T07:46:18.345Z,23.71
2023-04-15T07:47:18.409Z,23.70
2023-04-15T07:48:18.368Z,23.71
2023-04-15T07:49:18.408Z,23.72
2023-04-15T07:50:18.440Z,23.72
2023-04-15T07:51:18.464Z,23.72
2023-04-15T07:52:18.514Z,23.73
2023-04-15T07:53:18.557Z,23.72
2023-04-15T07:54:18.562Z,23.73
2023-04-15T07:55:18.591Z,23.73
2023-04-15T07:56:18.621Z,23.74
2023-04-15T07:57:18.672Z,23.75
2023-04-15T07:58:18.690Z,23.75
2023-04-15T07:59:18.728Z,23.76
2023-04-15T08:00:18.748Z,23.76
2023-04-15T08:01:18.758Z,23.77
2023-04-15T08:02:18.895Z,23.76
2023-04-15T08:03:18.913Z,23.77
2023-04-15T08:04:19.046Z,23.77
2023-04-15T08:05:19.060Z,23.77
2023-04-15T08:06:18.948Z,23.77
2023-04-15T08:07:18.992Z,23.78
2023-04-15T08:08:19.009Z,23.78
2023-04-15T08:09:19.027Z,23.79
2023-04-15T08:10:19.076Z,23.79
2023-04-15T08:11:19.102Z,23.79
2023-04-15T08:12:19.147Z,23.80
2023-04-15T08:13:19.191Z,23.81
2023-04-15T08:14:19.218Z,23.81
2023-04-15T08:15:19.234Z,23.81
2023-04-15T08:16:19.332Z,23.81
2023-04-15T08:17:19.353Z,23.81
2023-04-15T08:18:19.356Z,23.81
2023-04-15T08:19:19.367Z,23.82
2023-04-15T08:20:19.409Z,23.82
2023-04-15T08:21:19.445Z,23.82
2023-04-15T08:22:21.180Z,23.82
2023-04-15T08:23:19.523Z,23.83
2023-04-15T08:24:19.571Z,23.84
2023-04-15T08:25:19.609Z,23.84
2023-04-15T08:26:19.621Z,23.84
2023-04-15T08:27:19.671Z,23.84
2023-04-15T08:28:19.688Z,23.84
2023-04-15T08:29:19.711Z,23.85
2023-04-15T08:30:19.778Z,23.84
2023-04-15T08:31:19.852Z,23.85
2023-04-15T08:32:19.863Z,23.85
2023-04-15T08:33:19.864Z,23.86
2023-04-15T08:34:19.889Z,23.87
2023-04-15T08:35:19.936Z,23.86
2023-04-15T08:36:19.964Z,23.86
2023-04-15T08:37:19.969Z,23.87
2023-04-15T08:38:20.022Z,23.88
2023-04-15T08:39:20.043Z,23.87
2023-04-15T08:40:20.106Z,23.87
2023-04-15T08:41:20.131Z,23.87
2023-04-15T08:42:20.125Z,23.89
2023-04-15T08:43:20.163Z,23.89
2023-04-15T08:44:20.206Z,23.89
2023-04-15T08:45:20.231Z,23.90
2023-04-15T08:46:20.265Z,23.90
2023-04-15T08:47:20.283Z,23.91
2023-04-15T08:48:20.307Z,23.91
2023-04-15T08:49:20.348Z,23.91
2023-04-15T08:50:20.378Z,23.91
2023-04-15T08:51:20.395Z,23.92
2023-04-15T08:52:20.430Z,23.93
2023-04-15T08:53:20.465Z,23.94
2023-04-15T08:54:20.478Z,23.93
2023-04-15T08:55:20.522Z,23.93
2023-04-15T08:56:20.608Z,23.94
2023-04-15T08:57:20.556Z,23.94
2023-04-15T08:58:20.602Z,23.94
2023-04-15T08:59:20.632Z,23.94
2023-04-15T09:00:20.660Z,23.94
2023-04-15T09:01:20.720Z,23.95
2023-04-15T09:02:20.767Z,23.95
2023-04-15T09:03:20.805Z,23.96
2023-04-15T09:04:20.817Z,23.96
2023-04-15T09:05:20.800Z,23.96
2023-04-15T09:06:20.811Z,23.96
2023-04-15T09:07:20.836Z,23.95
2023-04-15T09:08:20.923Z,23.96
2023-04-15T09:09:20.891Z,23.96
2023-04-15T09:10:20.917Z,23.96
2023-04-15T09:11:20.949Z,23.97
2023-04-15T09:12:20.976Z,23.97
2023-04-15T09:13:20.987Z,23.97
2023-04-15T09:14:21.045Z,23.97
2023-04-15T09:15:21.065Z,23.98
2023-04-15T09:16:21.096Z,23.98
2023-04-15T09:17:21.132Z,23.98
2023-04-15T09:18:21.146Z,23.99
2023-04-15T09:19:21.149Z,23.99
2023-04-15T09:20:21.159Z,23.99
2023-04-15T09:21:21.183Z,24.00
2023-04-15T09:22:21.199Z,24.00
2023-04-15T09:23:21.219Z,24.00
2023-04-15T09:24:21.254Z,24.01
2023-04-15T09:25:21.280Z,24.01
2023-04-15T09:26:21.289Z,24.01
2023-04-15T09:27:21.290Z,24.01
2023-04-15T09:28:21.330Z,24.01
2023-04-15T09:29:21.337Z,24.01
2023-04-15T09:30:21.354Z,24.02
2023-04-15T09:31:21.475Z,24.03
2023-04-15T09:32:21.409Z,24.03
2023-04-15T09:33:21.396Z,24.02
2023-04-15T09:34:21.426Z,24.03
2023-04-15T09:35:21.464Z,24.04
2023-04-15T09:36:21.454Z,24.04
2023-04-15T09:37:32.074Z,24.04
2023-04-15T09:38:22.477Z,24.04
2023-04-15T09:39:21.522Z,24.04
2023-04-15T09:40:21.459Z,24.05
2023-04-15T09:41:21.448Z,24.06
2023-04-15T09:42:21.441Z,24.05
2023-04-15T09:43:21.457Z,24.06
2023-04-15T09:44:21.430Z,24.06
2023-04-15T09:45:21.437Z,24.06
2023-04-15T09:46:21.470Z,24.06
2023-04-15T09:47:21.478Z,24.07
2023-04-15T09:48:21.410Z,24.08
2023-04-15T09:49:21.430Z,24.08
2023-04-15T09:50:21.409Z,24.09
2023-04-15T09:51:21.393Z,24.08
2023-04-15T09:52:21.391Z,24.09
2023-04-15T09:53:21.396Z,24.09
2023-04-15T09:54:21.365Z,24.10
2023-04-15T09:55:21.356Z,24.10
2023-04-15T09:56:21.365Z,24.10
2023-04-15T09:57:21.348Z,24.10
2023-04-15T09:58:21.343Z,24.10
2023-04-15T09:59:21.872Z,24.11
2023-04-15T10:00:21.338Z,24.11
2023-04-15T10:01:21.375Z,24.11
2023-04-15T10:02:21.449Z,24.11
2023-04-15T10:03:21.542Z,24.11
2023-04-15T10:04:21.537Z,24.11
2023-04-15T10:05:21.392Z,24.11
2023-04-15T10:06:21.412Z,24.11
2023-04-15T10:07:21.421Z,24.12
2023-04-15T10:08:21.465Z,24.12
2023-04-15T10:09:21.460Z,24.12
2023-04-15T10:10:21.444Z,24.12
2023-04-15T10:11:21.452Z,24.13
2023-04-15T10:12:21.464Z,24.13
2023-04-15T10:13:21.492Z,24.13
2023-04-15T10:14:21.513Z,24.13
2023-04-15T10:15:21.508Z,24.13
2023-04-15T10:16:21.576Z,24.13
2023-04-15T10:17:21.571Z,24.13
2023-04-15T10:18:21.541Z,24.13
2023-04-15T10:19:21.539Z,24.14
2023-04-15T10:20:21.550Z,24.13
2023-04-15T10:21:21.579Z,24.14
2023-04-15T10:22:21.588Z,24.14
2023-04-15T10:23:21.595Z,24.14
2023-04-15T10:24:21.608Z,24.14
2023-04-15T10:25:21.616Z,24.13
2023-04-15T10:26:21.621Z,24.13
2023-04-15T10:27:21.637Z,24.14
2023-04-15T10:28:21.656Z,24.14
2023-04-15T10:29:21.652Z,24.14
2023-04-15T10:30:21.664Z,24.14
2023-04-15T10:31:21.719Z,24.14
2023-04-15T10:32:21.707Z,24.14
2023-04-15T10:33:21.671Z,24.14
2023-04-15T10:34:21.686Z,24.14
2023-04-15T10:35:21.701Z,24.14
2023-04-15T10:36:21.717Z,24.14
2023-04-15T10:37:21.721Z,24.14
2023-04-15T10:38:21.750Z,24.14
2023-04-15T10:39:21.733Z,24.14
2023-04-15T10:40:21.736Z,24.14
2023-04-15T10:41:21.960Z,24.14
2023-04-15T10:42:21.745Z,24.15
2023-04-15T10:43:21.765Z,24.14
2023-04-15T10:44:21.780Z,24.14
2023-04-15T10:45:21.797Z,24.14
2023-04-15T10:46:21.837Z,24.14
2023-04-15T10:47:21.942Z,24.14
2023-04-15T10:48:21.808Z,24.15
2023-04-15T10:49:21.822Z,24.15
2023-04-15T10:50:21.814Z,24.15
2023-04-15T10:51:21.819Z,24.14
2023-04-15T10:52:21.848Z,24.15
2023-04-15T10:53:21.880Z,24.15
2023-04-15T10:54:21.856Z,24.15
2023-04-15T10:55:21.899Z,24.15
2023-04-15T10:56:21.895Z,24.15
2023-04-15T10:57:21.906Z,24.15
2023-04-15T10:58:21.920Z,24.15
2023-04-15T10:59:22.455Z,24.15
2023-04-15T11:00:21.944Z,24.14
2023-04-15T11:01:21.954Z,24.14
2023-04-15T11:02:22.079Z,24.14
2023-04-15T11:03:22.021Z,24.14
2023-04-15T11:04:22.043Z,24.14
2023-04-15T11:05:21.999Z,24.14
2023-04-15T11:06:22.013Z,24.14
2023-04-15T11:07:22.026Z,24.14
2023-04-15T11:08:22.027Z,24.14
2023-04-15T11:09:22.049Z,24.14
2023-04-15T11:10:22.040Z,24.14
2023-04-15T11:11:22.051Z,24.14
2023-04-15T11:12:22.077Z,24.14
2023-04-15T11:13:22.073Z,24.14
2023-04-15T11:14:22.090Z,24.15
2023-04-15T11:15:22.114Z,24.15
2023-04-15T11:16:22.116Z,24.15
2023-04-15T11:17:22.172Z,24.15
2023-04-15T11:18:22.133Z,24.15
2023-04-15T11:19:22.165Z,24.15
2023-04-15T11:20:22.151Z,24.15
2023-04-15T11:21:22.137Z,24.16
2023-04-15T11:22:22.162Z,24.16
2023-04-15T11:23:22.169Z,24.17
2023-04-15T11:24:22.188Z,24.17
2023-04-15T11:25:22.199Z,24.17
2023-04-15T11:26:22.178Z,24.17
2023-04-15T11:27:22.216Z,24.17
2023-04-15T11:28:22.202Z,24.18
2023-04-15T11:29:22.228Z,24.18
2023-04-15T11:30:22.236Z,24.20
2023-04-15T11:31:22.253Z,24.20
2023-04-15T11:32:22.242Z,24.20
2023-04-15T11:33:22.241Z,24.20
2023-04-15T11:34:22.258Z,24.20
2023-04-15T11:35:22.271Z,24.20
2023-04-15T11:36:22.252Z,24.20
2023-04-15T11:37:22.274Z,24.19
2023-04-15T11:38:22.299Z,24.21
2023-04-15T11:39:22.287Z,24.20
2023-04-15T11:40:22.308Z,24.21
2023-04-15T11:41:22.324Z,24.20
2023-04-15T11:42:22.306Z,24.19
2023-04-15T11:43:22.315Z,24.19
2023-04-15T11:44:22.306Z,24.19
2023-04-15T11:45:22.332Z,24.19
2023-04-15T11:46:22.382Z,24.19
2023-04-15T11:47:22.406Z,24.18
2023-04-15T11:48:22.362Z,24.17
2023-04-15T11:49:22.352Z,24.18
2023-04-15T11:50:22.390Z,24.18
2023-04-15T11:51:22.374Z,24.18
2023-04-15T11:52:22.388Z,24.17
2023-04-15T11:53:22.409Z,24.18
2023-04-15T11:54:22.413Z,24.17
2023-04-15T11:55:22.427Z,24.17
2023-04-15T11:56:22.423Z,24.17
2023-04-15T11:57:22.440Z,24.16
2023-04-15T11:58:22.452Z,24.16
2023-04-15T11:59:22.996Z,24.16
2023-04-15T12:00:22.454Z,24.16
2023-04-15T12:01:22.459Z,24.15
2023-04-15T12:02:22.614Z,24.16
2023-04-15T12:03:22.730Z,24.16
2023-04-15T12:04:25.167Z,24.16
2023-04-15T12:05:22.589Z,24.15
2023-04-15T12:06:22.521Z,24.16
2023-04-15T12:07:22.497Z,24.16
2023-04-15T12:08:22.480Z,24.16
2023-04-15T12:09:22.476Z,24.16
2023-04-15T12:10:22.454Z,24.15
2023-04-15T12:11:22.468Z,24.16
2023-04-15T12:12:22.457Z,24.15
2023-04-15T12:13:22.444Z,24.16
2023-04-15T12:14:22.425Z,24.17
2023-04-15T12:15:22.419Z,24.16
2023-04-15T12:16:22.438Z,24.16
2023-04-15T12:17:22.417Z,24.17
2023-04-15T12:18:22.420Z,24.17
2023-04-15T12:19:22.409Z,24.18
2023-04-15T12:20:22.392Z,24.17
2023-04-15T12:21:22.396Z,24.17
2023-04-15T12:22:22.389Z,24.17
2023-04-15T12:23:22.364Z,24.18
2023-04-15T12:24:22.359Z,24.19
2023-04-15T12:25:22.371Z,24.19
2023-04-15T12:26:22.364Z,24.20
2023-04-15T12:27:22.346Z,24.20
2023-04-15T12:28:22.341Z,24.20
2023-04-15T12:29:22.370Z,24.19
2023-04-15T12:30:22.354Z,24.19
2023-04-15T12:31:22.351Z,24.20
2023-04-15T12:32:22.337Z,24.20
2023-04-15T12:33:22.316Z,24.20
2023-04-15T12:34:22.297Z,24.20
2023-04-15T12:35:22.307Z,24.20
2023-04-15T12:36:22.277Z,24.20
2023-04-15T12:37:22.300Z,24.19
2023-04-15T12:38:22.283Z,24.20
2023-04-15T12:39:22.268Z,24.19
2023-04-15T12:40:22.264Z,24.19
2023-04-15T12:41:22.264Z,24.19
2023-04-15T12:42:22.256Z,24.18
2023-04-15T12:43:22.253Z,24.18
2023-04-15T12:44:22.324Z,24.18
2023-04-15T12:45:22.220Z,24.17
2023-04-15T12:46:22.242Z,24.16
2023-04-15T12:47:22.218Z,24.16
2023-04-15T12:48:22.218Z,24.16
2023-04-15T12:49:22.202Z,24.15
2023-04-15T12:50:22.202Z,24.15
2023-04-15T12:51:22.177Z,24.15
2023-04-15T12:52:22.174Z,24.15
2023-04-15T12:53:22.172Z,24.14